Terminal Aerodrome Forecast
Issued by NWS

Home | Current Version | Previous Version | Text Only | Print | Product List | Glossary On
Versions: 1 2 3 4 5 6 7 8 9 10 11 12 13 14 15 16 17 18 19 20 21 22
000
FTUS41 KPBZ 271720
TAFZZV
TAF
KZZV 271720Z 2718/2818 18006KT P6SM -RA OVC012
      TEMPO 2718/2721 -RA SCT012 OVC025
     FM272100 16005KT P6SM VCSH OVC040
     FM280600 14003KT P6SM SCT060
     FM281500 17008KT P6SM VCSH OVC030
     FM281700 19009KT P6SM -SHRA OVC020=

USA.gov is the U.S. government's official web portal to all federal, state and local government web resources and services.